Rbd Italia — ICQC — position and weather

sailwx.info

Track history (hours):
 
Tides and Currents Weather Stations Pressure Air Temp Water Temp Dewpoint Dewpoint Depression Visibility Wind Speed Wind Dir Waves Ship Positions

Rbd Italia

Last reported at 2014-Sep-16 00:04 UTC. Time now 2014-Sep-17 01:35 UTC.
Position N 22°53' E 119°53'.

Length 229 m; draft 14.4 m.

Type: Cargo ship. MMSI: 247303200.

Date/timePositionNaut miles runAvg speedWind from/ knotsBaromVisibWave heightAir tempDewpointWater temp
2014-Sep-16 00:04N 22°53' E 119°53'510.1
2014-Sep-15 23:33N 22°48' E 119°54'10 9.9
2014-Sep-15 22:33N 22°38' E 119°54'10 9.7
2014-Sep-15 21:33N 22°29' E 119°54'11 9.9
2014-Sep-15 20:27N 22°18' E 119°54'  
2014-Sep-09 00:16N 01°15' E 104°05'6 7.7
2014-Sep-08 23:33N 01°17' E 103°59'1 0.6
2014-Sep-08 22:25N 01°17' E 103°59'0 0.1
2014-Sep-08 21:28N 01°17' E 103°59'0 0.0
2014-Sep-08 20:25N 01°17' E 103°59'0 0.0
2014-Sep-08 19:31N 01°17' E 103°59'0 0.0
2014-Sep-08 17:07N 01°17' E 103°59'0 0.1
2014-Sep-08 16:25N 01°17' E 103°59'0 0.3
2014-Sep-08 15:34N 01°17' E 103°59'0 0.1
2014-Sep-08 14:31N 01°17' E 103°59'0 0.0
2014-Sep-08 13:34N 01°17' E 103°59'0 0.1
2014-Sep-08 12:31N 01°17' E 103°59'0 0.1
2014-Sep-08 11:31N 01°17' E 103°59'0 0.0
2014-Sep-08 10:25N 01°17' E 103°59'0 0.3
2014-Sep-08 09:20N 01°17' E 103°59'3 3.3
2014-Sep-08 08:33N 01°16' E 103°57'5 5.5
2014-Sep-08 07:33N 01°16' E 104°03'  
Track history (hours):
 
Tides and Currents Weather Stations Pressure Air Temp Water Temp Dewpoint Dewpoint Depression Visibility Wind Speed Wind Dir Waves Ship Positions

Rbd Italia

Last reported at 2014-Sep-16 00:04 UTC. Time now 2014-Sep-17 01:35 UTC.
Position N 22°53' E 119°53'.

Length 229 m; draft 14.4 m.

Type: Cargo ship. MMSI: 247303200.

Date/timePositionNaut miles runAvg speedWind from/ knotsBaromVisibWave heightAir tempDewpointWater temp
2014-Sep-16 00:04N 22°53' E 119°53'510.1
2014-Sep-15 23:33N 22°48' E 119°54'10 9.9
2014-Sep-15 22:33N 22°38' E 119°54'10 9.7
2014-Sep-15 21:33N 22°29' E 119°54'11 9.9
2014-Sep-15 20:27N 22°18' E 119°54'  
2014-Sep-09 00:16N 01°15' E 104°05'6 7.7
2014-Sep-08 23:33N 01°17' E 103°59'1 0.6
2014-Sep-08 22:25N 01°17' E 103°59'0 0.1
2014-Sep-08 21:28N 01°17' E 103°59'0 0.0
2014-Sep-08 20:25N 01°17' E 103°59'0 0.0
2014-Sep-08 19:31N 01°17' E 103°59'0 0.0
2014-Sep-08 17:07N 01°17' E 103°59'0 0.1
2014-Sep-08 16:25N 01°17' E 103°59'0 0.3
2014-Sep-08 15:34N 01°17' E 103°59'0 0.1
2014-Sep-08 14:31N 01°17' E 103°59'0 0.0
2014-Sep-08 13:34N 01°17' E 103°59'0 0.1
2014-Sep-08 12:31N 01°17' E 103°59'0 0.1
2014-Sep-08 11:31N 01°17' E 103°59'0 0.0
2014-Sep-08 10:25N 01°17' E 103°59'0 0.3
2014-Sep-08 09:20N 01°17' E 103°59'3 3.3
2014-Sep-08 08:33N 01°16' E 103°57'5 5.5
2014-Sep-08 07:33N 01°16' E 104°03'  

Dump ship's entire track history